Impacts TAF Board INFO
FOR SITUATIONAL AWARENESS. NOT TO BE USED FOR FLIGHT PLANNING PURPOSES.
IDs:

KCLT - Charlotte/Douglas In, NC, US

Issued at 0521 UTC 23 Sep 2017
Updated at 0730 UTC 23 Sep 2017
Potential Impact None Slight Moderate High
Time0652Z 23/08Z 23/09Z 23/10Z 23/11Z 23/12Z 23/13Z 23/14Z 23/15Z 23/16Z 23/17Z 23/18Z 23/19Z 23/20Z>>
Type OBS PRVL PRVL PRVL PRVL PRVL PRVL PRVL PRVL PRVL PRVL PRVL PRVL PRVL
VIS 10 >6 >6 >6 >6 >6 >6 >6 >6 >6 >6 >6 >6 >6
CIG -- -- -- -- -- -- -- -- -- -- -- -- -- --
Cover FEW FEW FEW FEW FEW FEW FEW FEW FEW FEW FEW FEW FEW FEW
FltCat VFR VFR VFR VFR VFR VFR VFR VFR VFR VFR VFR VFR VFR VFR
WX -- -- -- -- -- -- -- -- -- -- -- -- -- --
WDir VRB VRB VRB VRB VRB VRB VRB VRB VRB VRB 50 50 50 50
WSpd 0 2 2 2 2 2 2 2 2 2 5 5 5 5
WGst -- -- -- -- -- -- -- -- -- -- -- -- -- --

Raw TAF
KCLT 230521Z 2306/2406 VRB02KT P6SM FEW200
  FM231700 05005KT P6SM FEW050
  FM240000 07005KT P6SM FEW250


Raw METAR
KCLT 230652Z 00000KT 10SM FEW050 19/19 A3004 RMK AO2 SLP164 T01940189
KCLT 230552Z 00000KT 10SM FEW050 FEW100 22/19 A3005 RMK AO2 SLP168 T02170189 10289 20189 55000
KCLT 230452Z 36003KT 10SM FEW100 21/19 A3005 RMK AO2 SLP167 T02060189 403170189

METAR Board
Radar Display
Forecast Discussion

FOR SITUATIONAL AWARENESS. NOT TO BE USED FOR FLIGHT PLANNING PURPOSES.